Time;durP1;ratioP1;P1;durP2;ratioP2;P2;SDS_P1;SDS_P2;PMS_P1;PMS_P2;Temp;Humidity;BMP_temperature;BMP_pressure;BME280_temperature;BME280_humidity;BME280_pressure;Samples;Min_cycle;Max_cycle;Signal;HPM_P1;HPM_P2
2023/02/18 00:01:29;;;;;;;0.40;0.30;;;8.90;99.90;8.80;100635.00;;;;4910526;28;87983;-66
2023/02/18 00:03:56;;;;;;;0.10;0.10;;;8.90;99.90;8.80;100654.00;;;;4911756;28;87693;-65
2023/02/18 00:06:26;;;;;;;1.30;0.60;;;8.90;99.60;8.70;100655.00;;;;4910347;28;109814;-66
2023/02/18 00:08:52;;;;;;;1.13;0.20;;;8.80;99.60;8.70;100652.00;;;;4910804;28;112062;-66
2023/02/18 00:11:20;;;;;;;0.40;0.40;;;8.90;99.80;8.60;100641.00;;;;4911490;28;87849;-65
2023/02/18 00:13:51;;;;;;;0.30;0.30;;;8.80;99.90;8.60;100650.00;;;;4909558;28;87414;-65
2023/02/18 00:16:17;;;;;;;0.40;0.33;;;8.70;99.90;8.50;100642.00;;;;4907801;28;88665;-66
2023/02/18 00:18:43;;;;;;;0.40;0.30;;;8.60;99.90;8.50;100647.00;;;;4906997;28;116378;-66
2023/02/18 00:21:08;;;;;;;1.77;0.97;;;8.60;99.90;8.40;100663.00;;;;4906078;28;110876;-65
2023/02/18 00:23:35;;;;;;;2.30;0.40;;;8.50;99.90;8.40;100664.00;;;;4910470;28;88886;-66
2023/02/18 00:26:14;;;;;;;4.03;0.53;;;8.50;99.90;8.30;100667.00;;;;4908483;28;88163;-65
2023/02/18 00:28:40;;;;;;;0.97;0.53;;;8.40;99.90;8.30;100673.00;;;;4914522;28;88480;-66
2023/02/18 00:31:13;;;;;;;2.53;0.63;;;8.40;99.90;8.20;100676.00;;;;4911432;28;110522;-66
2023/02/18 00:33:40;;;;;;;2.20;0.90;;;8.40;99.90;8.10;100660.00;;;;4909481;28;90944;-65
2023/02/18 00:36:10;;;;;;;0.70;0.33;;;8.30;99.90;8.10;100663.00;;;;4906130;28;104427;-67
2023/02/18 00:38:36;;;;;;;1.50;0.20;;;8.20;99.90;8.00;100666.00;;;;4912781;28;87808;-66
2023/02/18 00:41:02;;;;;;;2.90;1.07;;;8.20;99.90;8.00;100676.00;;;;4906169;28;87929;-66
2023/02/18 00:43:28;;;;;;;1.73;0.63;;;8.10;99.90;7.90;100664.00;;;;4907600;28;94447;-66
2023/02/18 00:45:53;;;;;;;0.53;0.50;;;8.10;99.90;7.90;100667.00;;;;4907286;28;118835;-67
2023/02/18 00:48:19;;;;;;;2.10;0.70;;;8.00;99.90;7.80;100677.00;;;;4903291;28;118453;-66
2023/02/18 00:50:46;;;;;;;2.63;0.63;;;8.00;99.90;7.80;100692.00;;;;4909482;28;109877;-68
2023/02/18 00:53:11;;;;;;;5.50;0.90;;;7.90;99.90;7.80;100667.00;;;;4911714;28;89134;-67
2023/02/18 00:55:43;;;;;;;2.17;0.50;;;7.90;99.90;7.80;100682.00;;;;4908207;28;117804;-68
2023/02/18 00:58:09;;;;;;;0.67;0.47;;;7.90;99.90;7.70;100691.00;;;;4911586;28;92912;-68
2023/02/18 01:00:36;;;;;;;1.70;0.67;;;8.00;99.90;7.70;100688.00;;;;4908707;28;87775;-67
2023/02/18 01:03:02;;;;;;;1.37;0.70;;;7.80;99.90;7.70;100682.00;;;;4911709;28;87222;-69
2023/02/18 01:05:28;;;;;;;0.30;0.30;;;7.80;99.90;7.60;100688.00;;;;4910353;28;110077;-68
2023/02/18 01:07:54;;;;;;;1.03;0.60;;;7.80;99.90;7.60;100683.00;;;;4909403;28;117250;-66
2023/02/18 01:10:20;;;;;;;4.53;0.70;;;7.70;99.90;7.60;100679.00;;;;4908570;28;100956;-65
2023/02/18 01:12:45;;;;;;;1.73;0.60;;;7.70;99.90;7.60;100680.00;;;;4911181;28;100438;-67
2023/02/18 01:15:14;;;;;;;0.70;0.50;;;7.70;99.90;7.60;100695.00;;;;4914599;28;116291;-66
2023/02/18 01:17:40;;;;;;;0.53;0.53;;;7.70;99.90;7.60;100683.00;;;;4914006;28;108648;-66
2023/02/18 01:20:08;;;;;;;2.63;0.70;;;7.70;99.90;7.60;100676.00;;;;4913818;28;109905;-66
2023/02/18 01:22:33;;;;;;;1.03;0.60;;;7.70;99.90;7.50;100668.00;;;;4908474;28;87871;-65
2023/02/18 01:24:59;;;;;;;5.00;0.80;;;7.70;99.90;7.50;100670.00;;;;4911752;28;115969;-65
2023/02/18 01:27:25;;;;;;;1.00;0.60;;;7.90;99.90;7.50;100677.00;;;;4913264;28;117904;-66
2023/02/18 01:29:51;;;;;;;0.47;0.30;;;7.60;99.90;7.40;100674.00;;;;4913452;28;110328;-66
2023/02/18 01:32:16;;;;;;;4.23;0.47;;;7.60;99.90;7.40;100671.00;;;;4910013;28;108357;-66
2023/02/18 01:34:42;;;;;;;1.50;0.60;;;7.50;99.90;7.40;100671.00;;;;4914395;28;119303;-65
2023/02/18 01:37:07;;;;;;;0.50;0.23;;;7.50;99.90;7.40;100672.00;;;;4913685;28;90090;-66
2023/02/18 01:39:33;;;;;;;2.37;0.87;;;7.50;99.90;7.30;100684.00;;;;4912151;28;110627;-65
2023/02/18 01:41:59;;;;;;;0.83;0.37;;;7.60;99.90;7.30;100681.00;;;;4912310;28;87944;-66
2023/02/18 01:44:27;;;;;;;0.63;0.30;;;7.40;99.90;7.30;100691.00;;;;4911413;28;87894;-66
2023/02/18 01:46:53;;;;;;;0.37;0.37;;;7.40;99.90;7.30;100689.00;;;;4913549;28;88016;-65
2023/02/18 01:49:26;;;;;;;0.20;0.20;;;7.70;99.90;7.30;100684.00;;;;4913692;28;104673;-65
2023/02/18 01:51:58;;;;;;;0.83;0.50;;;7.40;99.90;7.30;100687.00;;;;4912785;28;86991;-66
2023/02/18 01:54:38;;;;;;;2.57;0.30;;;7.40;99.90;7.20;100689.00;;;;4911599;28;109247;-65
2023/02/18 01:57:30;;;;;;;2.40;0.50;;;7.30;99.90;7.10;100679.00;;;;4909988;28;88443;-65
2023/02/18 02:00:07;;;;;;;0.20;0.20;;;7.30;99.90;7.10;100677.00;;;;4914306;28;104156;-66
2023/02/18 02:02:36;;;;;;;0.50;0.27;;;7.80;99.90;7.10;100680.00;;;;4914244;28;87977;-66
2023/02/18 02:05:02;;;;;;;0.10;0.10;;;7.50;99.90;7.00;100680.00;;;;4908545;28;116277;-66
2023/02/18 02:07:28;;;;;;;3.00;0.50;;;7.20;99.90;7.00;100677.00;;;;4910177;28;111631;-65
2023/02/18 02:09:56;;;;;;;0.30;0.20;;;7.20;99.90;7.00;100691.00;;;;4911024;28;109809;-67
2023/02/18 02:12:53;;;;;;;4.33;0.73;;;7.20;99.90;7.00;100688.00;;;;4894353;28;100712;-67
2023/02/18 02:15:36;;;;;;;0.80;0.30;;;7.10;99.90;6.90;100703.00;;;;4910712;28;88284;-66
2023/02/18 02:18:08;;;;;;;0.10;0.10;;;7.10;99.90;6.90;100697.00;;;;4909270;28;102816;-66
2023/02/18 02:20:51;;;;;;;0.10;0.10;;;7.10;99.90;6.90;100694.00;;;;4911932;28;110654;-67
2023/02/18 02:23:56;;;;;;;0.20;0.20;;;7.00;99.90;6.80;100694.00;;;;4879554;28;101956;-66
2023/02/18 02:26:49;;;;;;;1.20;0.50;;;7.00;99.90;6.80;100688.00;;;;4908730;28;109567;-65
2023/02/18 02:29:55;;;;;;;0.77;0.30;;;7.10;99.90;6.80;100688.00;;;;4913785;28;88766;-66
2023/02/18 02:32:41;;;;;;;0.30;0.30;;;7.00;99.90;6.80;100686.00;;;;4910327;28;88084;-65
2023/02/18 02:35:21;;;;;;;2.73;0.20;;;7.00;99.90;6.70;100693.00;;;;4911271;28;87912;-66
2023/02/18 02:38:18;;;;;;;2.23;0.40;;;7.00;99.90;6.70;100691.00;;;;4912564;28;102308;-67
2023/02/18 02:40:59;;;;;;;1.77;1.07;;;6.90;99.90;6.70;100696.00;;;;4913424;28;88290;-66
2023/02/18 02:43:55;;;;;;;0.40;0.20;;;7.20;99.90;6.80;100702.00;;;;4910051;28;102636;-66
2023/02/18 02:46:34;;;;;;;0.67;0.67;;;6.90;99.90;6.80;100689.00;;;;4911885;28;87207;-66
2023/02/18 02:49:32;;;;;;;2.90;0.23;;;6.90;99.90;6.80;100697.00;;;;4911608;28;107532;-67
2023/02/18 02:52:14;;;;;;;1.80;0.63;;;7.00;99.90;6.90;100695.00;;;;4891634;28;87992;-68
2023/02/18 02:54:40;;;;;;;0.87;0.43;;;7.00;99.90;6.90;100693.00;;;;4914483;28;101828;-67
2023/02/18 02:57:29;;;;;;;1.67;0.40;;;7.60;99.90;6.90;100673.00;;;;4904950;28;106982;-67
2023/02/18 03:00:01;;;;;;;3.47;0.73;;;7.10;99.90;7.00;100687.00;;;;4912461;28;87866;-68
2023/02/18 03:03:02;;;;;;;0.20;0.20;;;7.30;99.90;7.00;100684.00;;;;4910869;28;87806;-69
2023/02/18 03:06:05;;;;;;;0.37;0.23;;;7.20;99.90;7.00;100685.00;;;;4913263;28;87965;-66
2023/02/18 03:08:50;;;;;;;0.77;0.20;;;7.20;99.90;7.00;100673.00;;;;4909472;28;101981;-68
2023/02/18 03:11:17;;;;;;;3.23;0.47;;;7.10;99.80;7.10;100690.00;;;;4869055;28;112980;-66
2023/02/18 03:14:36;;;;;;;0.43;0.40;;;7.20;99.60;7.10;100678.00;;;;4907207;28;115906;-66
2023/02/18 03:17:14;;;;;;;1.20;0.70;;;7.20;99.30;7.10;100670.00;;;;4898882;28;87985;-67
2023/02/18 03:19:58;;;;;;;2.70;0.40;;;7.20;99.10;7.10;100687.00;;;;4896884;28;87698;-65
2023/02/18 03:22:30;;;;;;;0.60;0.60;;;7.80;99.80;7.20;100677.00;;;;4904910;28;110194;-67
2023/02/18 03:24:57;;;;;;;0.10;0.10;;;7.40;98.80;7.20;100686.00;;;;4906468;28;88709;-66
2023/02/18 03:27:31;;;;;;;3.37;0.50;;;7.30;98.70;7.30;100681.00;;;;4892280;28;108798;-66
2023/02/18 03:30:06;;;;;;;2.00;0.60;;;7.40;98.30;7.30;100689.00;;;;4911279;28;101452;-67
2023/02/18 03:32:34;;;;;;;2.50;0.53;;;7.50;98.20;7.40;100664.00;;;;4896276;28;89156;-66
2023/02/18 03:35:07;;;;;;;0.00;0.00;;;7.40;98.10;7.40;100684.00;;;;4909325;28;89774;-67
2023/02/18 03:37:41;;;;;;;0.80;0.40;;;7.50;98.20;7.50;100683.00;;;;4907951;28;87887;-67
2023/02/18 03:40:09;;;;;;;2.17;0.70;;;7.50;97.70;7.50;100681.00;;;;4891665;28;97021;-68
2023/02/18 03:42:35;;;;;;;0.30;0.10;;;7.60;97.70;7.50;100682.00;;;;4905911;28;102924;-67
2023/02/18 03:45:00;;;;;;;2.90;0.47;;;8.00;97.60;7.60;100670.00;;;;4891716;28;115926;-67
2023/02/18 03:47:26;;;;;;;0.40;0.20;;;7.60;97.30;7.60;100679.00;;;;4907327;28;88680;-66
2023/02/18 03:49:52;;;;;;;0.20;0.13;;;7.70;97.40;7.60;100681.00;;;;4910691;28;107299;-66
2023/02/18 03:52:18;;;;;;;0.93;0.63;;;8.00;97.30;7.60;100672.00;;;;4912728;28;116908;-66
2023/02/18 03:54:43;;;;;;;1.80;0.37;;;7.70;97.30;7.60;100678.00;;;;4908755;28;91759;-66
2023/02/18 03:57:09;;;;;;;1.20;0.57;;;7.70;97.00;7.60;100680.00;;;;4911047;28;111302;-66
2023/02/18 03:59:35;;;;;;;0.20;0.10;;;7.80;96.70;7.60;100685.00;;;;4910221;28;108975;-66
2023/02/18 04:02:01;;;;;;;1.20;0.40;;;7.80;96.70;7.60;100680.00;;;;4912125;28;108350;-67
2023/02/18 04:04:27;;;;;;;0.20;0.20;;;7.70;96.60;7.60;100685.00;;;;4907203;28;88647;-66
2023/02/18 04:06:53;;;;;;;0.27;0.23;;;7.70;96.20;7.60;100675.00;;;;4911217;28;100692;-66
2023/02/18 04:09:18;;;;;;;0.43;0.43;;;7.70;96.00;7.70;100685.00;;;;4905221;28;107258;-66
2023/02/18 04:11:44;;;;;;;0.40;0.27;;;8.50;96.10;7.70;100685.00;;;;4905233;28;118173;-66
2023/02/18 04:14:13;;;;;;;0.30;0.30;;;7.70;95.80;7.70;100689.00;;;;4911575;28;118584;-66
2023/02/18 04:16:40;;;;;;;0.87;0.43;;;7.80;95.80;7.70;100693.00;;;;4907352;28;101935;-65
2023/02/18 04:19:05;;;;;;;2.20;0.20;;;7.70;95.80;7.70;100695.00;;;;4911536;28;100726;-66
2023/02/18 04:21:32;;;;;;;0.73;0.33;;;7.80;96.10;7.70;100694.00;;;;4909202;28;117427;-65
2023/02/18 04:23:59;;;;;;;1.33;0.50;;;7.80;96.10;7.70;100695.00;;;;4910405;28;117804;-66
2023/02/18 04:26:25;;;;;;;2.20;0.63;;;7.80;96.10;7.70;100682.00;;;;4907614;28;87806;-67
2023/02/18 04:28:50;;;;;;;0.77;0.40;;;7.80;96.10;7.70;100687.00;;;;4908305;28;87106;-66
2023/02/18 04:31:16;;;;;;;0.47;0.47;;;7.80;96.30;7.70;100690.00;;;;4908655;28;89423;-65
2023/02/18 04:33:42;;;;;;;1.60;0.40;;;8.00;96.50;7.80;100692.00;;;;4909610;28;116960;-65
2023/02/18 04:36:08;;;;;;;0.80;0.50;;;7.90;96.50;7.80;100700.00;;;;4910914;28;96898;-64
2023/02/18 04:38:34;;;;;;;0.23;0.23;;;7.90;96.80;7.80;100704.00;;;;4908439;28;88289;-65
2023/02/18 04:41:00;;;;;;;0.37;0.10;;;7.90;97.00;7.90;100700.00;;;;4906750;28;89049;-66
2023/02/18 04:43:25;;;;;;;0.10;0.10;;;7.90;97.10;7.90;100687.00;;;;4907381;28;117606;-65
2023/02/18 04:45:51;;;;;;;1.17;0.50;;;7.90;97.50;7.90;100696.00;;;;4906888;28;110346;-65
2023/02/18 04:48:17;;;;;;;2.53;0.33;;;7.90;97.60;7.90;100699.00;;;;4907700;28;107027;-65
2023/02/18 04:50:44;;;;;;;1.43;0.40;;;8.00;98.00;7.90;100702.00;;;;4914123;28;89292;-65
2023/02/18 04:53:09;;;;;;;1.70;0.83;;;8.60;98.30;7.90;100695.00;;;;4915021;28;87795;-65
2023/02/18 04:55:35;;;;;;;0.40;0.40;;;8.00;98.20;7.90;100696.00;;;;4911684;28;108970;-66
2023/02/18 04:58:01;;;;;;;2.40;0.40;;;8.00;98.40;7.90;100689.00;;;;4912501;28;109152;-65
2023/02/18 05:00:28;;;;;;;1.60;0.50;;;8.00;98.60;7.90;100687.00;;;;4914231;28;119464;-67
2023/02/18 05:02:53;;;;;;;4.13;0.77;;;8.10;98.80;8.00;100680.00;;;;4912800;28;89379;-66
2023/02/18 05:05:19;;;;;;;0.90;0.80;;;8.10;99.10;7.90;100678.00;;;;4912779;28;110409;-65
2023/02/18 05:07:45;;;;;;;0.40;0.27;;;8.10;99.30;8.00;100687.00;;;;4915170;28;110674;-65
2023/02/18 05:10:16;;;;;;;0.87;0.40;;;8.20;99.50;8.00;100681.00;;;;4910948;28;108598;-65
2023/02/18 05:12:42;;;;;;;0.50;0.50;;;8.10;99.60;8.00;100683.00;;;;4913339;28;88898;-65
2023/02/18 05:15:09;;;;;;;3.40;0.63;;;8.20;99.80;8.10;100673.00;;;;4911960;28;109782;-64
2023/02/18 05:17:34;;;;;;;1.33;0.70;;;8.10;99.90;8.10;100672.00;;;;4913205;28;87193;-65
2023/02/18 05:20:01;;;;;;;2.43;0.73;;;8.20;99.90;8.10;100673.00;;;;4911505;28;89075;-65
2023/02/18 05:22:27;;;;;;;0.83;0.50;;;8.20;99.90;8.10;100663.00;;;;4910626;28;101932;-67
2023/02/18 05:24:52;;;;;;;3.17;0.63;;;8.20;99.90;8.10;100679.00;;;;4910759;28;110478;-65
2023/02/18 05:27:18;;;;;;;1.80;0.50;;;8.30;99.90;8.20;100676.00;;;;4892645;28;108361;-65
2023/02/18 05:29:44;;;;;;;1.63;0.83;;;8.20;99.90;8.20;100676.00;;;;4911125;28;117974;-64
2023/02/18 05:32:09;;;;;;;0.83;0.50;;;8.20;99.90;8.20;100661.00;;;;4913770;28;118449;-66
2023/02/18 05:34:35;;;;;;;0.63;0.50;;;8.30;99.90;8.20;100666.00;;;;4910921;28;109626;-66
2023/02/18 05:37:01;;;;;;;0.47;0.40;;;8.30;99.90;8.30;100671.00;;;;4892610;28;108529;-65
2023/02/18 05:39:26;;;;;;;1.77;0.70;;;8.30;99.90;8.30;100660.00;;;;4911452;28;94269;-66
2023/02/18 05:41:52;;;;;;;1.70;0.67;;;8.40;99.90;8.30;100660.00;;;;4910838;28;116430;-65
2023/02/18 05:44:29;;;;;;;1.70;0.60;;;8.40;99.90;8.30;100663.00;;;;4912426;28;109511;-65
2023/02/18 05:47:15;;;;;;;1.60;0.60;;;8.40;99.90;8.30;100665.00;;;;4915072;28;87997;-65
2023/02/18 05:49:42;;;;;;;2.67;0.57;;;8.40;99.90;8.40;100662.00;;;;4911196;28;113579;-65
2023/02/18 05:52:09;;;;;;;1.63;0.60;;;8.40;99.90;8.40;100660.00;;;;4909745;28;89707;-66
2023/02/18 05:54:36;;;;;;;3.33;1.07;;;8.50;99.90;8.40;100651.00;;;;4914783;28;88161;-65
2023/02/18 05:57:02;;;;;;;0.80;0.60;;;8.50;99.90;8.50;100660.00;;;;4912798;28;100398;-65
2023/02/18 05:59:28;;;;;;;0.60;0.30;;;8.60;99.90;8.50;100660.00;;;;4913245;28;88261;-66
2023/02/18 06:01:54;;;;;;;0.97;0.60;;;8.60;99.90;8.50;100655.00;;;;4909519;28;117314;-64
2023/02/18 06:04:20;;;;;;;2.90;0.60;;;8.60;99.90;8.50;100658.00;;;;4913356;28;110599;-67
2023/02/18 06:06:46;;;;;;;0.57;0.50;;;8.00;99.90;8.50;100655.00;;;;4908043;28;87058;-67
2023/02/18 06:09:12;;;;;;;2.07;0.80;;;8.60;99.90;8.50;100665.00;;;;4905913;28;116098;-65
2023/02/18 06:11:38;;;;;;;1.17;0.70;;;8.60;99.90;8.50;100669.00;;;;4909950;28;109638;-66
2023/02/18 06:14:05;;;;;;;2.40;0.60;;;8.60;99.90;8.50;100665.00;;;;4910723;28;109518;-65
2023/02/18 06:16:31;;;;;;;1.63;0.57;;;8.60;99.90;8.50;100660.00;;;;4902850;28;101345;-66
2023/02/18 06:18:57;;;;;;;1.67;0.80;;;8.60;99.90;8.50;100667.00;;;;4908227;28;109744;-65
2023/02/18 06:21:23;;;;;;;1.13;0.53;;;8.60;99.90;8.50;100661.00;;;;4907995;28;117863;-65
2023/02/18 06:23:48;;;;;;;1.30;0.70;;;9.10;99.90;8.50;100672.00;;;;4912091;28;87842;-65
2023/02/18 06:26:14;;;;;;;1.73;0.67;;;8.60;99.90;8.50;100670.00;;;;4908645;28;107622;-66
2023/02/18 06:28:40;;;;;;;0.80;0.80;;;8.60;99.90;8.50;100669.00;;;;4907486;28;110764;-66
2023/02/18 06:31:05;;;;;;;1.40;0.40;;;8.60;99.90;8.60;100670.00;;;;4906712;28;116871;-66
2023/02/18 06:33:31;;;;;;;0.40;0.40;;;8.60;99.90;8.50;100677.00;;;;4904340;28;88878;-66
2023/02/18 06:36:06;;;;;;;6.67;0.97;;;8.60;99.90;8.50;100673.00;;;;4906754;28;108741;-68
2023/02/18 06:38:34;;;;;;;4.83;0.83;;;8.60;99.90;8.50;100660.00;;;;4907030;28;90193;-66
2023/02/18 06:40:59;;;;;;;1.37;0.70;;;8.60;99.90;8.40;100678.00;;;;4909471;28;89766;-67
2023/02/18 06:43:25;;;;;;;2.87;0.97;;;8.50;99.90;8.40;100665.00;;;;4908394;28;110011;-66
2023/02/18 06:45:51;;;;;;;1.90;0.97;;;8.50;99.90;8.30;100682.00;;;;4908151;28;108871;-66
2023/02/18 06:48:17;;;;;;;4.73;0.77;;;8.50;99.90;8.20;100681.00;;;;4909020;28;117154;-66
2023/02/18 06:50:43;;;;;;;1.90;1.20;;;8.40;99.90;8.10;100676.00;;;;4907178;28;88918;-67
2023/02/18 06:53:08;;;;;;;2.53;0.60;;;8.50;99.90;8.00;100674.00;;;;4904878;28;101614;-66
2023/02/18 06:55:34;;;;;;;1.60;0.83;;;8.10;99.90;7.90;100671.00;;;;4910608;28;87051;-67
2023/02/18 06:58:00;;;;;;;1.13;0.83;;;8.00;99.90;7.80;100669.00;;;;4906660;28;118356;-66
2023/02/18 07:00:25;;;;;;;1.87;1.17;;;8.10;99.90;7.70;100667.00;;;;4905103;28;117711;-68
2023/02/18 07:02:51;;;;;;;3.80;1.20;;;7.90;99.90;7.60;100661.00;;;;4909955;28;91864;-66
2023/02/18 07:05:17;;;;;;;1.07;0.80;;;7.70;99.90;7.40;100661.00;;;;4908426;28;108035;-67
2023/02/18 07:07:42;;;;;;;3.57;0.97;;;7.70;99.90;7.30;100654.00;;;;4909693;28;100244;-68
2023/02/18 07:10:09;;;;;;;2.80;1.43;;;8.10;99.90;7.20;100661.00;;;;4907837;28;117443;-66
2023/02/18 07:12:34;;;;;;;1.07;0.63;;;7.40;99.90;7.10;100659.00;;;;4907996;28;100194;-67
2023/02/18 07:15:00;;;;;;;2.13;0.93;;;7.60;99.90;7.10;100646.00;;;;4910215;28;108703;-68
2023/02/18 07:17:27;;;;;;;3.90;1.10;;;7.20;99.90;7.00;100658.00;;;;4904677;28;115985;-67
2023/02/18 07:19:54;;;;;;;2.60;1.13;;;7.20;99.90;7.00;100645.00;;;;4907897;28;117507;-69
2023/02/18 07:22:20;;;;;;;1.33;1.00;;;7.10;99.90;6.90;100646.00;;;;4908861;28;87944;-67
2023/02/18 07:24:51;;;;;;;4.63;1.43;;;7.10;99.90;6.90;100644.00;;;;4909073;28;102718;-64
2023/02/18 07:27:17;;;;;;;1.27;0.97;;;7.40;99.90;6.90;100636.00;;;;4909755;28;90077;-64
2023/02/18 07:29:43;;;;;;;1.93;0.87;;;7.00;99.90;6.90;100632.00;;;;4905133;28;108961;-64
2023/02/18 07:32:12;;;;;;;2.13;1.37;;;7.10;99.90;6.90;100628.00;;;;4906434;28;109458;-63
2023/02/18 07:34:37;;;;;;;3.47;1.30;;;7.30;99.90;6.80;100611.00;;;;4908139;28;88893;-64
2023/02/18 07:37:08;;;;;;;1.03;0.80;;;7.00;99.90;6.80;100616.00;;;;4906048;28;118912;-64
2023/02/18 07:39:34;;;;;;;1.10;0.83;;;7.40;99.90;6.80;100613.00;;;;4910319;28;88348;-63
2023/02/18 07:42:02;;;;;;;3.10;1.03;;;7.00;99.90;6.80;100608.00;;;;4907562;28;100051;-63
2023/02/18 07:44:28;;;;;;;3.90;1.30;;;7.00;99.90;6.80;100606.00;;;;4908243;28;87266;-64
2023/02/18 07:46:53;;;;;;;1.13;0.93;;;6.90;99.90;6.80;100606.00;;;;4907211;28;88981;-64
2023/02/18 07:49:19;;;;;;;4.27;1.37;;;6.90;99.90;6.80;100607.00;;;;4911485;28;116277;-65
2023/02/18 07:51:49;;;;;;;4.80;1.53;;;7.00;99.90;6.80;100608.00;;;;4901398;28;89147;-65
2023/02/18 07:54:15;;;;;;;3.43;2.03;;;7.00;99.90;6.90;100602.00;;;;4910213;28;87829;-65
2023/02/18 07:56:42;;;;;;;3.70;1.83;;;7.00;99.90;6.90;100588.00;;;;4908553;28;106715;-65
2023/02/18 07:59:08;;;;;;;3.63;1.20;;;7.00;99.90;6.90;100595.00;;;;4909041;28;88334;-64
2023/02/18 08:01:34;;;;;;;6.70;1.63;;;7.10;99.90;7.00;100603.00;;;;4904792;28;101447;-65
2023/02/18 08:04:00;;;;;;;1.97;1.47;;;7.70;99.90;7.00;100591.00;;;;4903013;28;108561;-65
2023/02/18 08:06:37;;;;;;;2.13;1.47;;;7.10;99.90;7.00;100583.00;;;;4907022;28;116866;-65
2023/02/18 08:09:03;;;;;;;4.73;2.10;;;7.20;99.90;7.10;100577.00;;;;4891370;28;87300;-65
2023/02/18 08:11:29;;;;;;;2.50;1.40;;;7.20;99.90;7.10;100581.00;;;;4904693;28;92878;-65
2023/02/18 08:13:55;;;;;;;2.67;2.20;;;7.20;99.90;7.10;100575.00;;;;4907985;28;88145;-65
2023/02/18 08:16:21;;;;;;;2.67;1.90;;;7.50;99.90;7.10;100581.00;;;;4907519;28;119030;-66
2023/02/18 08:18:48;;;;;;;4.17;2.03;;;7.30;99.90;7.20;100573.00;;;;4906599;28;118174;-66
2023/02/18 08:21:16;;;;;;;7.13;1.83;;;7.50;99.90;7.10;100558.00;;;;4905440;28;88001;-64
2023/02/18 08:23:42;;;;;;;3.70;1.97;;;7.30;99.90;7.10;100563.00;;;;4909104;28;87843;-64
2023/02/18 08:26:08;;;;;;;6.13;2.13;;;7.30;99.90;7.20;100547.00;;;;4905855;28;88546;-65
2023/02/18 08:28:33;;;;;;;9.53;2.43;;;7.50;99.90;7.20;100544.00;;;;4904031;28;105327;-67
2023/02/18 08:31:00;;;;;;;3.07;2.10;;;7.90;99.90;7.20;100538.00;;;;4908044;28;111013;-65
2023/02/18 08:33:25;;;;;;;3.53;2.67;;;7.80;99.90;7.20;100534.00;;;;4905330;28;100369;-68
2023/02/18 08:35:53;;;;;;;3.23;2.10;;;7.30;99.90;7.30;100528.00;;;;4904057;28;116358;-67
2023/02/18 08:38:20;;;;;;;2.87;2.03;;;7.80;99.90;7.30;100527.00;;;;4906408;28;87891;-66
2023/02/18 08:40:47;;;;;;;3.03;2.17;;;7.40;99.90;7.30;100526.00;;;;4909297;28;102292;-66
2023/02/18 08:43:14;;;;;;;3.43;1.93;;;7.80;99.90;7.30;100524.00;;;;4906185;28;87738;-65
2023/02/18 08:45:40;;;;;;;6.07;2.23;;;7.40;99.90;7.30;100524.00;;;;4903975;28;88492;-67
2023/02/18 08:48:07;;;;;;;4.80;2.03;;;7.40;99.90;7.30;100517.00;;;;4904289;28;91972;-67
2023/02/18 08:50:33;;;;;;;2.17;1.97;;;7.40;99.90;7.30;100509.00;;;;4906960;28;99013;-68
2023/02/18 08:53:02;;;;;;;2.30;1.87;;;7.40;99.90;7.30;100508.00;;;;4890040;28;87935;-68
2023/02/18 08:55:32;;;;;;;3.53;2.70;;;7.40;99.90;7.30;100514.00;;;;4901434;28;89128;-66
2023/02/18 08:57:58;;;;;;;4.30;2.33;;;7.50;99.90;7.30;100505.00;;;;4909314;28;88017;-67
2023/02/18 09:00:25;;;;;;;9.57;5.63;;;7.50;99.90;7.30;100490.00;;;;4905773;28;103145;-67
2023/02/18 09:02:50;;;;;;;6.27;2.60;;;7.50;99.90;7.30;100491.00;;;;4906227;28;97189;-68
2023/02/18 09:05:16;;;;;;;2.50;2.17;;;7.60;99.90;7.40;100497.00;;;;4905582;28;118879;-66
2023/02/18 09:07:42;;;;;;;3.50;2.10;;;7.40;99.90;7.40;100490.00;;;;4904767;28;116376;-66
2023/02/18 09:10:09;;;;;;;2.23;2.03;;;7.60;99.90;7.40;100477.00;;;;4905170;28;110198;-67
2023/02/18 09:12:35;;;;;;;4.97;2.53;;;7.50;99.90;7.40;100473.00;;;;4905661;28;92721;-67
2023/02/18 09:15:01;;;;;;;6.53;4.13;;;7.50;99.90;7.40;100470.00;;;;4906668;28;112021;-68
2023/02/18 09:17:28;;;;;;;6.47;3.23;;;7.60;99.90;7.40;100466.00;;;;4908049;28;119400;-67
2023/02/18 09:19:53;;;;;;;2.47;2.23;;;7.60;99.90;7.40;100467.00;;;;4906632;28;110614;-69
2023/02/18 09:22:19;;;;;;;3.23;1.57;;;7.50;99.90;7.40;100460.00;;;;4903708;28;87060;-67
2023/02/18 09:24:45;;;;;;;8.10;4.23;;;8.00;99.90;7.40;100448.00;;;;4906435;28;105285;-68
2023/02/18 09:27:11;;;;;;;3.70;2.97;;;7.90;99.90;7.40;100451.00;;;;4905131;28;117816;-69
2023/02/18 09:29:39;;;;;;;4.03;1.87;;;7.60;99.90;7.40;100446.00;;;;4905174;28;88845;-70
2023/02/18 09:32:06;;;;;;;5.67;2.37;;;7.50;99.90;7.40;100437.00;;;;4886404;28;88034;-68
2023/02/18 09:34:35;;;;;;;5.50;3.03;;;7.50;99.90;7.40;100428.00;;;;4909964;28;104099;-69
2023/02/18 09:37:01;;;;;;;2.80;1.93;;;7.50;99.90;7.40;100424.00;;;;4910690;28;117951;-68
2023/02/18 09:39:26;;;;;;;3.67;2.97;;;7.50;99.90;7.40;100406.00;;;;4909678;28;98713;-69
2023/02/18 09:41:56;;;;;;;5.13;2.83;;;7.50;99.90;7.40;100407.00;;;;4909981;28;108067;-69
2023/02/18 09:44:41;;;;;;;6.20;3.03;;;7.40;99.90;7.30;100398.00;;;;4911018;28;89168;-69
2023/02/18 09:47:36;;;;;;;2.63;2.43;;;7.50;99.90;7.40;100387.00;;;;4912593;28;103930;-69
2023/02/18 09:50:20;;;;;;;4.93;2.23;;;7.50;99.90;7.40;100382.00;;;;4910465;28;88595;-69
2023/02/18 09:52:46;;;;;;;4.10;2.17;;;7.50;99.90;7.40;100382.00;;;;4912953;28;87695;-69
2023/02/18 09:55:30;;;;;;;3.13;1.90;;;7.70;99.90;7.40;100384.00;;;;4907809;28;118765;-69
2023/02/18 09:58:02;;;;;;;2.93;2.00;;;7.50;99.90;7.40;100371.00;;;;4895072;28;88517;-69
2023/02/18 10:00:37;;;;;;;2.33;1.70;;;7.50;99.90;7.40;100374.00;;;;4895266;28;88146;-69
2023/02/18 10:03:24;;;;;;;7.67;2.07;;;7.50;99.90;7.40;100356.00;;;;4886070;28;88138;-69
2023/02/18 10:06:11;;;;;;;3.73;2.53;;;7.60;99.90;7.40;100356.00;;;;4898348;28;88221;-69
2023/02/18 10:08:49;;;;;;;3.10;2.57;;;7.50;99.90;7.40;100352.00;;;;4893029;28;90334;-69
2023/02/18 10:11:30;;;;;;;3.60;2.50;;;7.50;99.90;7.40;100349.00;;;;4896211;28;103978;-70
2023/02/18 10:13:59;;;;;;;2.83;2.63;;;7.50;99.90;7.50;100339.00;;;;4908365;28;87448;-69
2023/02/18 10:16:26;;;;;;;2.97;1.80;;;7.60;99.90;7.50;100335.00;;;;4888883;28;87954;-69
2023/02/18 10:19:24;;;;;;;3.83;2.50;;;7.60;99.90;7.50;100335.00;;;;4910694;28;100122;-69
2023/02/18 10:21:52;;;;;;;3.37;2.57;;;7.60;99.90;7.50;100319.00;;;;4891902;28;89011;-69
2023/02/18 10:24:35;;;;;;;6.53;2.93;;;7.70;99.90;7.50;100326.00;;;;4910184;28;87749;-69
2023/02/18 10:27:06;;;;;;;3.57;2.47;;;7.60;99.90;7.50;100313.00;;;;4892147;28;88660;-69
2023/02/18 10:29:33;;;;;;;4.50;2.50;;;7.60;99.90;7.60;100315.00;;;;4912121;28;87979;-69
2023/02/18 10:32:21;;;;;;;5.70;2.67;;;7.70;99.90;7.60;100304.00;;;;4893843;28;88105;-69
2023/02/18 10:35:15;;;;;;;2.87;2.07;;;7.70;99.90;7.60;100298.00;;;;4907823;28;87835;-69
2023/02/18 10:38:02;;;;;;;4.17;2.10;;;7.70;99.90;7.60;100284.00;;;;4892754;28;96226;-69
2023/02/18 10:41:14;;;;;;;5.07;2.73;;;7.70;99.90;7.60;100266.00;;;;4896691;28;87163;-70
2023/02/18 10:44:06;;;;;;;2.07;1.87;;;7.80;99.90;7.60;100267.00;;;;4823887;28;88309;-69
2023/02/18 10:46:49;;;;;;;6.17;2.93;;;7.80;99.90;7.80;100251.00;;;;4906919;28;88027;-69
2023/02/18 10:49:56;;;;;;;4.40;2.20;;;7.70;99.90;7.90;100249.00;;;;4908459;28;89161;-69
2023/02/18 10:52:24;;;;;;;8.33;2.87;;;7.90;99.90;8.00;100235.00;;;;4893189;28;89541;-68
2023/02/18 10:55:04;;;;;;;2.03;1.80;;;8.10;99.90;8.00;100241.00;;;;4909029;28;88136;-68
2023/02/18 10:57:31;;;;;;;7.23;2.50;;;8.10;99.90;8.10;100230.00;;;;4907005;28;87891;-68
2023/02/18 11:00:26;;;;;;;3.37;2.13;;;8.10;99.90;8.10;100222.00;;;;4910173;28;88007;-69
2023/02/18 11:03:19;;;;;;;3.70;2.77;;;8.20;99.90;8.20;100207.00;;;;4888909;28;87999;-69
2023/02/18 11:05:47;;;;;;;3.87;2.77;;;8.30;99.90;8.20;100192.00;;;;4908381;28;100271;-68
2023/02/18 11:08:26;;;;;;;3.57;2.57;;;8.30;99.90;8.30;100192.00;;;;4909832;28;101638;-67
2023/02/18 11:10:53;;;;;;;2.70;2.37;;;8.40;99.90;8.40;100183.00;;;;4907268;28;110396;-66
2023/02/18 11:13:28;;;;;;;4.27;3.10;;;8.40;99.90;8.50;100192.00;;;;4906529;28;87894;-66